createdAt,value
2023-02-06T00:01:55.658Z,101225.16
2023-02-06T00:07:18.035Z,101220.03
2023-02-06T00:12:40.454Z,101187.78
2023-02-06T00:18:05.618Z,101199.97
2023-02-06T00:23:27.779Z,101215.59
2023-02-06T00:28:49.905Z,101222.19
2023-02-06T00:34:12.784Z,101230.25
2023-02-06T00:39:34.672Z,101224.66
2023-02-06T00:44:56.631Z,101227.31
2023-02-06T00:50:18.981Z,101246.41
2023-02-06T00:55:41.047Z,101236.03
2023-02-06T01:01:03.302Z,101242.13
2023-02-06T01:06:25.369Z,101237.84
2023-02-06T01:11:47.156Z,101239.16
2023-02-06T01:17:10.763Z,101249.03
2023-02-06T01:22:37.736Z,101255.44
2023-02-06T01:27:59.973Z,101269.28
2023-02-06T01:33:22.116Z,101267.81
2023-02-06T01:38:45.116Z,101263.81
2023-02-06T01:44:13.218Z,101269.91
2023-02-06T01:49:45.057Z,101253.28
2023-02-06T01:55:07.366Z,101238.47
2023-02-06T02:00:29.764Z,101241.41
2023-02-06T02:05:53.139Z,101271.66
2023-02-06T02:11:32.196Z,101272.53
2023-02-06T02:17:11.035Z,101249.63
2023-02-06T02:23:05.441Z,101263.47
2023-02-06T02:28:30.235Z,101262.94
2023-02-06T02:34:34.457Z,101271.03
2023-02-06T02:40:19.125Z,101275.69
2023-02-06T02:45:56.131Z,101264.84
2023-02-06T02:51:19.082Z,101255.25
2023-02-06T02:56:45.306Z,101256.25
2023-02-06T03:02:13.577Z,101248.72
2023-02-06T03:07:48.743Z,101275.38
2023-02-06T03:13:26.617Z,101269.75
2023-02-06T03:25:03.833Z,101284.72
2023-02-06T03:30:34.282Z,101283.59
2023-02-06T03:35:59.469Z,101241.31
2023-02-06T03:41:28.102Z,101278.50
2023-02-06T03:46:52.666Z,101295.78
2023-02-06T03:52:21.479Z,101289.84
2023-02-06T03:57:48.863Z,101273.06
2023-02-06T04:03:15.168Z,101299.09
2023-02-06T04:08:36.929Z,101255.16
2023-02-06T04:13:58.823Z,101300.38
2023-02-06T04:19:20.942Z,101300.38
2023-02-06T04:24:43.723Z,101275.22
2023-02-06T04:30:06.922Z,101278.00
2023-02-06T04:35:29.455Z,101289.72
2023-02-06T04:40:52.364Z,101304.38
2023-02-06T04:46:14.337Z,101307.66
2023-02-06T04:51:38.042Z,101328.06
2023-02-06T04:57:00.379Z,101304.19
2023-02-06T05:02:24.950Z,101302.38
2023-02-06T05:07:46.988Z,101330.19
2023-02-06T05:13:09.378Z,101299.72
2023-02-06T05:18:31.518Z,101310.94
2023-02-06T05:23:53.626Z,101305.00
2023-02-06T05:29:15.282Z,101293.97
2023-02-06T05:34:37.590Z,101285.25
2023-02-06T05:40:00.113Z,101337.59
2023-02-06T05:45:22.339Z,101326.72
2023-02-06T05:50:45.049Z,101298.28
2023-02-06T05:56:10.500Z,101313.56
2023-02-06T06:01:32.660Z,101325.44
2023-02-06T06:06:54.361Z,101332.69
2023-02-06T06:12:16.790Z,101337.28
2023-02-06T06:17:38.926Z,101324.59
2023-02-06T06:23:03.818Z,101352.13
2023-02-06T06:28:25.864Z,101361.81
2023-02-06T06:33:48.544Z,101368.41
2023-02-06T06:39:11.588Z,101371.53
2023-02-06T06:44:34.227Z,101374.31
2023-02-06T06:49:58.553Z,101373.03
2023-02-06T06:55:20.717Z,101373.81
2023-02-06T07:00:43.560Z,101393.22
2023-02-06T07:06:06.614Z,101377.75
2023-02-06T07:11:32.165Z,101389.63
2023-02-06T07:16:54.464Z,101389.97
2023-02-06T07:22:16.672Z,101362.28
2023-02-06T07:27:38.730Z,101362.91
2023-02-06T07:33:01.352Z,101364.41
2023-02-06T07:38:23.453Z,101364.38
2023-02-06T07:43:45.324Z,101370.78
2023-02-06T07:49:07.202Z,101382.94
2023-02-06T07:54:29.293Z,101365.19
2023-02-06T07:59:51.628Z,101373.25
2023-02-06T08:05:13.900Z,101374.72
2023-02-06T08:10:40.364Z,101407.44
2023-02-06T08:16:12.405Z,101356.31
2023-02-06T08:21:34.963Z,101409.66
2023-02-06T08:26:57.532Z,101380.72
2023-02-06T08:32:20.111Z,101390.22
2023-02-06T08:37:42.518Z,101393.66
2023-02-06T08:43:05.122Z,101400.06
2023-02-06T08:48:28.020Z,101388.50
2023-02-06T08:53:50.303Z,101388.63
2023-02-06T08:59:14.808Z,101399.31
2023-02-06T09:04:38.302Z,101405.19
2023-02-06T09:10:01.536Z,101373.72
2023-02-06T09:15:24.407Z,101400.53
2023-02-06T09:20:50.243Z,101378.72
2023-02-06T09:26:14.561Z,101382.13
2023-02-06T09:31:39.407Z,101431.84
2023-02-06T09:37:06.086Z,101373.28
2023-02-06T09:42:42.504Z,101420.28
2023-02-06T09:48:21.144Z,101442.66
2023-02-06T09:54:09.644Z,101445.00
2023-02-06T09:59:36.059Z,101416.44
2023-02-06T10:05:30.845Z,101448.41
2023-02-06T10:11:09.503Z,101440.28
2023-02-06T10:17:10.508Z,101451.31
2023-02-06T10:22:46.326Z,101425.84
2023-02-06T10:28:31.186Z,101458.94
2023-02-06T10:34:21.394Z,101464.59
2023-02-06T10:39:59.484Z,101460.81
2023-02-06T10:45:48.948Z,101474.34
2023-02-06T10:51:25.501Z,101464.41
2023-02-06T10:57:19.983Z,101436.09
2023-02-06T11:03:06.584Z,101439.69
2023-02-06T11:08:45.761Z,101423.56
2023-02-06T11:14:31.295Z,101446.63
2023-02-06T11:20:24.688Z,101415.19
2023-02-06T11:25:55.912Z,101409.44
2023-02-06T11:31:23.274Z,101447.16
2023-02-06T11:36:45.870Z,101468.59
2023-02-06T11:42:19.271Z,101476.97
2023-02-06T11:47:41.573Z,101480.13
2023-02-06T11:53:20.594Z,101459.69
2023-02-06T11:58:43.940Z,101478.13
2023-02-06T12:04:06.742Z,101441.34
2023-02-06T12:09:29.665Z,101436.88
2023-02-06T12:15:10.243Z,101490.81
2023-02-06T12:20:51.804Z,101480.91
2023-02-06T12:26:17.373Z,101484.97
2023-02-06T12:32:05.434Z,101486.09
2023-02-06T12:37:42.204Z,101498.28
2023-02-06T12:43:16.585Z,101502.16
2023-02-06T12:48:50.082Z,101493.56
2023-02-06T12:54:40.753Z,101493.53
2023-02-06T13:00:29.484Z,101488.84
2023-02-06T13:06:28.216Z,101485.25
2023-02-06T13:11:50.769Z,101467.47
2023-02-06T13:17:24.551Z,101483.34
2023-02-06T13:23:16.510Z,101491.09
2023-02-06T13:28:38.744Z,101500.28
2023-02-06T13:34:17.068Z,101486.06
2023-02-06T13:40:10.347Z,101499.75
2023-02-06T13:45:54.877Z,101488.66
2023-02-06T13:51:25.856Z,101509.47
2023-02-06T13:57:16.064Z,101507.34
2023-02-06T14:02:51.067Z,101488.97
2023-02-06T14:15:47.140Z,101512.91
2023-02-06T14:21:35.217Z,101518.88
2023-02-06T14:39:03.390Z,101525.28
2023-02-06T14:44:32.915Z,101504.75
2023-02-06T14:49:58.762Z,101529.81
2023-02-06T14:55:40.705Z,101526.22
2023-02-06T15:01:33.087Z,101536.75
2023-02-06T15:07:02.548Z,101568.06
2023-02-06T15:12:27.793Z,101552.22
2023-02-06T15:18:05.454Z,101544.50
2023-02-06T15:23:52.385Z,101559.16
2023-02-06T15:29:28.318Z,101577.50
2023-02-06T15:34:50.866Z,101578.13
2023-02-06T15:40:31.614Z,101584.00
2023-02-06T15:45:59.510Z,101584.78
2023-02-06T15:51:30.351Z,101589.06
2023-02-06T15:56:59.317Z,101584.53
2023-02-06T16:02:31.727Z,101590.47
2023-02-06T16:07:55.506Z,101565.94
2023-02-06T16:13:21.775Z,101607.84
2023-02-06T16:18:44.109Z,101598.84
2023-02-06T16:24:16.951Z,101585.34
2023-02-06T16:29:39.373Z,101610.19
2023-02-06T16:35:02.902Z,101565.13
2023-02-06T16:40:26.627Z,101580.38
2023-02-06T16:45:49.923Z,101578.19
2023-02-06T16:51:22.767Z,101624.03
2023-02-06T16:56:45.358Z,101601.19
2023-02-06T17:02:14.933Z,101640.13
2023-02-06T17:07:36.667Z,101647.03
2023-02-06T17:12:58.696Z,101622.16
2023-02-06T17:18:22.474Z,101641.63
2023-02-06T17:23:46.078Z,101641.75
2023-02-06T17:29:08.186Z,101634.03
2023-02-06T17:34:31.136Z,101625.84
2023-02-06T17:39:54.101Z,101628.47
2023-02-06T17:45:16.748Z,101649.44
2023-02-06T17:50:41.817Z,101649.50
2023-02-06T17:56:13.292Z,101647.91
2023-02-06T18:01:36.049Z,101669.59
2023-02-06T18:06:58.795Z,101671.75
2023-02-06T18:12:21.340Z,101672.88
2023-02-06T18:17:44.559Z,101676.31
2023-02-06T18:23:06.997Z,101651.16
2023-02-06T18:28:29.971Z,101699.19
2023-02-06T18:33:52.598Z,101689.69
2023-02-06T18:39:14.587Z,101705.31
2023-02-06T18:44:42.346Z,101709.75
2023-02-06T18:50:04.671Z,101717.94
2023-02-06T18:55:26.988Z,101705.69
2023-02-06T19:00:49.600Z,101696.34
2023-02-06T19:06:19.364Z,101736.34
2023-02-06T19:11:43.064Z,101738.03
2023-02-06T19:17:05.214Z,101736.34
2023-02-06T19:22:27.440Z,101745.16
2023-02-06T19:27:49.783Z,101734.41
2023-02-06T19:33:11.884Z,101740.50
2023-02-06T19:38:34.679Z,101751.25
2023-02-06T19:43:58.204Z,101722.47
2023-02-06T19:49:20.727Z,101758.03
2023-02-06T19:54:43.294Z,101749.13
2023-02-06T20:00:06.405Z,101754.09
2023-02-06T20:05:29.292Z,101739.22
2023-02-06T20:10:51.627Z,101746.13
2023-02-06T20:16:25.685Z,101756.66
2023-02-06T20:21:52.489Z,101772.78
2023-02-06T20:27:16.655Z,101741.47
2023-02-06T20:32:39.052Z,101759.03
2023-02-06T20:38:01.451Z,101770.50
2023-02-06T20:43:23.712Z,101761.66
2023-02-06T20:48:47.388Z,101777.94
2023-02-06T20:54:11.848Z,101788.16
2023-02-06T20:59:34.097Z,101764.19
2023-02-06T21:04:55.998Z,101805.69
2023-02-06T21:10:17.955Z,101800.28
2023-02-06T21:15:40.259Z,101778.00
2023-02-06T21:21:11.951Z,101818.06
2023-02-06T21:26:34.529Z,101828.59
2023-02-06T21:32:12.261Z,101816.25
2023-02-06T21:37:35.492Z,101805.09
2023-02-06T21:42:57.704Z,101814.22
2023-02-06T21:48:19.860Z,101812.22
2023-02-06T21:53:43.363Z,101821.03
2023-02-06T21:59:07.157Z,101819.34
2023-02-06T22:04:31.791Z,101829.00
2023-02-06T22:09:53.932Z,101792.84
2023-02-06T22:15:16.494Z,101831.44
2023-02-06T22:20:38.759Z,101820.25
2023-02-06T22:26:00.961Z,101808.91
2023-02-06T22:31:27.820Z,101807.63
2023-02-06T22:36:51.617Z,101856.59
2023-02-06T22:42:13.238Z,101858.72
2023-02-06T22:47:35.489Z,101871.44
2023-02-06T22:53:16.508Z,101827.00
2023-02-06T22:58:38.656Z,101856.16
2023-02-06T23:04:02.201Z,101885.22
2023-02-06T23:09:27.084Z,101887.28
2023-02-06T23:14:49.040Z,101874.56
2023-02-06T23:20:11.691Z,101880.75
2023-02-06T23:25:34.237Z,101918.09
2023-02-06T23:30:56.727Z,101939.41
2023-02-06T23:36:20.252Z,101916.63
2023-02-06T23:41:42.412Z,101910.25
2023-02-06T23:47:04.965Z,101934.75
2023-02-06T23:52:27.197Z,101901.69
2023-02-06T23:57:49.465Z,101915.22
